TimeMDT,TemperatureF,Dew PointF,Humidity,Sea Level PressureIn,VisibilityMPH,Wind Direction,Wind SpeedMPH,Gust SpeedMPH,PrecipitationIn,Events,Conditions,WindDirDegrees,DateUTC
12:08 AM,48.2,33.8,58,30.83,10.0,WSW,4.6,-,N/A,,Scattered Clouds,240,2013-08-19 06:08:00
12:28 AM,48.2,33.8,58,30.83,10.0,SSW,3.5,-,N/A,,Scattered Clouds,210,2013-08-19 06:28:00
12:48 AM,50.0,33.8,54,30.83,10.0,SW,4.6,-,N/A,,Mostly Cloudy,230,2013-08-19 06:48:00
1:08 AM,48.2,33.8,58,30.82,10.0,WSW,11.5,-,N/A,,Overcast,240,2013-08-19 07:08:00
1:28 AM,46.4,33.8,62,30.81,10.0,SW,15.0,-,N/A,,Overcast,230,2013-08-19 07:28:00
1:48 AM,46.4,33.8,62,30.81,10.0,SW,17.3,-,N/A,,Mostly Cloudy,230,2013-08-19 07:48:00
2:08 AM,46.4,33.8,62,30.81,10.0,SW,17.3,-,N/A,,Scattered Clouds,230,2013-08-19 08:08:00
2:28 AM,46.4,33.8,62,30.80,10.0,SW,17.3,-,N/A,,Clear,220,2013-08-19 08:28:00
2:48 AM,46.4,33.8,62,30.80,10.0,SW,16.1,-,N/A,,Clear,220,2013-08-19 08:48:00
3:08 AM,46.4,35.6,66,30.79,10.0,SW,16.1,-,N/A,,Clear,230,2013-08-19 09:08:00
3:28 AM,46.4,35.6,66,30.79,10.0,WSW,13.8,-,N/A,,Clear,240,2013-08-19 09:28:00
3:48 AM,46.4,35.6,66,30.79,10.0,SW,13.8,-,N/A,,Clear,230,2013-08-19 09:48:00
4:08 AM,46.4,35.6,66,30.79,10.0,WSW,16.1,-,N/A,,Clear,250,2013-08-19 10:08:00
4:28 AM,46.4,35.6,66,30.79,10.0,West,17.3,-,N/A,,Clear,260,2013-08-19 10:28:00
4:48 AM,46.4,35.6,66,30.79,10.0,West,13.8,-,N/A,,Clear,260,2013-08-19 10:48:00
5:08 AM,48.2,35.6,62,30.79,10.0,West,12.7,-,N/A,,Clear,260,2013-08-19 11:08:00
5:28 AM,46.4,35.6,66,30.79,10.0,West,10.4,-,N/A,,Clear,270,2013-08-19 11:28:00
5:48 AM,48.2,35.6,62,30.79,10.0,West,9.2,-,N/A,,Clear,280,2013-08-19 11:48:00
6:08 AM,48.2,33.8,58,30.79,10.0,NW,9.2,-,N/A,,Clear,310,2013-08-19 12:08:00
6:28 AM,50.0,33.8,54,30.79,10.0,NW,8.1,-,N/A,,Clear,310,2013-08-19 12:28:00
6:48 AM,50.0,32.0,50,30.79,10.0,West,8.1,-,N/A,,Clear,280,2013-08-19 12:48:00
7:08 AM,50.0,33.8,54,30.80,10.0,NNW,6.9,-,N/A,,Clear,330,2013-08-19 13:08:00
7:28 AM,51.8,33.8,50,30.81,10.0,NNW,6.9,-,N/A,,Clear,330,2013-08-19 13:28:00
7:48 AM,51.8,33.8,50,30.81,10.0,Calm,Calm,-,N/A,,Clear,0,2013-08-19 13:48:00
8:08 AM,51.8,33.8,50,30.81,10.0,Calm,Calm,-,N/A,,Clear,0,2013-08-19 14:08:00
8:28 AM,53.6,33.8,47,30.81,10.0,North,5.8,-,N/A,,Clear,10,2013-08-19 14:28:00
8:48 AM,57.2,35.6,44,30.82,10.0,East,5.8,-,N/A,,Clear,90,2013-08-19 14:48:00
9:08 AM,59.0,35.6,42,30.82,10.0,East,4.6,-,N/A,,Clear,80,2013-08-19 15:08:00
9:28 AM,59.0,33.8,39,30.82,10.0,ENE,5.8,-,N/A,,Clear,60,2013-08-19 15:28:00
9:48 AM,59.0,33.8,39,30.82,10.0,ENE,12.7,16.1,N/A,,Clear,70,2013-08-19 15:48:00
10:08 AM,59.0,33.8,39,30.83,10.0,East,11.5,-,N/A,,Clear,80,2013-08-19 16:08:00
10:28 AM,60.8,33.8,36,30.82,10.0,ENE,12.7,18.4,N/A,,Clear,70,2013-08-19 16:28:00
10:48 AM,60.8,33.8,36,30.82,10.0,ENE,17.3,24.2,N/A,,Clear,70,2013-08-19 16:48:00
11:08 AM,60.8,32.0,34,30.81,10.0,ENE,20.7,27.6,N/A,,Clear,70,2013-08-19 17:08:00
11:28 AM,60.8,32.0,34,30.81,10.0,ENE,24.2,28.8,N/A,,Clear,70,2013-08-19 17:28:00
11:48 AM,60.8,32.0,34,30.82,10.0,ENE,21.9,27.6,N/A,,Clear,70,2013-08-19 17:48:00
12:08 PM,60.8,32.0,34,30.81,10.0,East,20.7,25.3,N/A,,Clear,80,2013-08-19 18:08:00
12:28 PM,62.6,32.0,32,30.82,10.0,East,13.8,25.3,N/A,,Clear,90,2013-08-19 18:28:00
12:48 PM,62.6,32.0,32,30.81,10.0,ENE,18.4,26.5,N/A,,Scattered Clouds,70,2013-08-19 18:48:00
1:08 PM,62.6,32.0,32,30.81,10.0,East,10.4,-,N/A,,Scattered Clouds,100,2013-08-19 19:08:00
1:28 PM,64.4,32.0,30,30.81,10.0,ENE,16.1,23.0,N/A,,Clear,60,2013-08-19 19:28:00
1:48 PM,62.6,30.2,30,30.81,10.0,East,15.0,-,N/A,,Clear,80,2013-08-19 19:48:00
2:08 PM,64.4,32.0,30,30.79,10.0,NE,8.1,-,N/A,,Scattered Clouds,50,2013-08-19 20:08:00
2:28 PM,62.6,30.2,30,30.79,10.0,East,3.5,23.0,N/A,,Clear,90,2013-08-19 20:28:00
2:48 PM,62.6,32.0,32,30.77,10.0,ENE,24.2,29.9,N/A,Thunderstorm,Scattered Clouds,70,2013-08-19 20:48:00
3:08 PM,62.6,32.0,32,30.77,10.0,ENE,19.6,-,N/A,,Overcast,60,2013-08-19 21:08:00
3:28 PM,60.8,30.2,31,30.76,10.0,ENE,20.7,-,N/A,,Overcast,60,2013-08-19 21:28:00
3:48 PM,62.6,32.0,32,30.76,10.0,ENE,23.0,28.8,N/A,Thunderstorm,Overcast,70,2013-08-19 21:48:00
4:08 PM,60.8,32.0,34,30.77,10.0,NE,12.7,21.9,N/A,,Overcast,50,2013-08-19 22:08:00
4:28 PM,60.8,32.0,34,30.76,10.0,ENE,16.1,26.5,N/A,,Overcast,60,2013-08-19 22:28:00
4:48 PM,60.8,32.0,34,30.76,10.0,ENE,20.7,24.2,N/A,,Scattered Clouds,60,2013-08-19 22:48:00
5:08 PM,59.0,35.6,42,30.76,10.0,ENE,23.0,29.9,N/A,,Scattered Clouds,70,2013-08-19 23:08:00
5:28 PM,55.4,33.8,44,30.76,10.0,ENE,21.9,-,N/A,,Mostly Cloudy,60,2013-08-19 23:28:00
5:48 PM,55.4,35.6,47,30.77,10.0,ENE,16.1,-,N/A,,Overcast,60,2013-08-19 23:48:00
6:08 PM,55.4,35.6,47,30.77,10.0,ENE,15.0,-,N/A,,Overcast,70,2013-08-20 00:08:00
6:28 PM,55.4,33.8,44,30.76,10.0,ENE,13.8,-,N/A,Thunderstorm,Overcast,60,2013-08-20 00:28:00
6:48 PM,53.6,33.8,47,30.77,10.0,ENE,11.5,-,N/A,,Mostly Cloudy,70,2013-08-20 00:48:00
7:08 PM,53.6,35.6,51,30.77,10.0,ENE,9.2,-,N/A,,Mostly Cloudy,70,2013-08-20 01:08:00
7:28 PM,53.6,33.8,47,30.77,10.0,NE,9.2,-,N/A,,Mostly Cloudy,50,2013-08-20 01:28:00
7:48 PM,53.6,33.8,47,30.79,10.0,South,9.2,-,N/A,,Mostly Cloudy,190,2013-08-20 01:48:00
8:08 PM,53.6,35.6,51,30.79,10.0,South,11.5,-,N/A,,Overcast,190,2013-08-20 02:08:00
8:28 PM,53.6,35.6,51,30.80,10.0,South,9.2,-,N/A,,Overcast,190,2013-08-20 02:28:00
8:48 PM,53.6,35.6,51,30.81,10.0,South,9.2,-,N/A,,Overcast,190,2013-08-20 02:48:00
9:08 PM,53.6,35.6,51,30.81,10.0,SE,8.1,-,N/A,Rain,Light Rain,140,2013-08-20 03:08:00
9:28 PM,51.8,37.4,58,30.82,10.0,SE,8.1,-,N/A,Rain,Rain,140,2013-08-20 03:28:00
9:48 PM,50.0,37.4,62,30.83,7.0,West,8.1,-,N/A,Rain,Rain,270,2013-08-20 03:48:00
10:08 PM,46.4,41.0,81,30.84,10.0,North,18.4,-,N/A,Rain,Rain,360,2013-08-20 04:08:00
10:28 PM,48.2,37.4,66,30.82,10.0,NW,6.9,-,N/A,Rain,Light Rain,320,2013-08-20 04:28:00
10:48 PM,50.0,35.6,58,30.81,10.0,NW,9.2,-,N/A,,Mostly Cloudy,310,2013-08-20 04:48:00
11:08 PM,50.0,35.6,58,30.81,10.0,West,6.9,-,N/A,,Scattered Clouds,270,2013-08-20 05:08:00
11:28 PM,50.0,35.6,58,30.81,10.0,WSW,4.6,-,N/A,,Scattered Clouds,250,2013-08-20 05:28:00
11:48 PM,50.0,35.6,58,30.81,10.0,SSW,8.1,-,N/A,,Scattered Clouds,210,2013-08-20 05:48:00